createdAt,value
2023-03-26T00:02:19.450Z,95080.47
2023-03-26T00:04:53.233Z,95077.06
2023-03-26T00:07:24.848Z,95081.19
2023-03-26T00:09:58.024Z,95077.28
2023-03-26T00:12:29.607Z,95079.88
2023-03-26T00:15:01.178Z,95089.22
2023-03-26T00:17:33.575Z,95072.91
2023-03-26T00:20:05.221Z,95074.72
2023-03-26T00:22:36.773Z,95078.56
2023-03-26T00:25:08.452Z,95082.66
2023-03-26T00:27:40.354Z,95086.44
2023-03-26T00:30:12.521Z,95081.47
2023-03-26T00:32:44.507Z,95083.78
2023-03-26T00:35:25.443Z,95083.31
2023-03-26T00:37:58.390Z,95077.66
2023-03-26T00:40:30.189Z,95080.56
2023-03-26T00:43:02.397Z,95076.81
2023-03-26T00:45:33.975Z,95084.44
2023-03-26T00:48:05.858Z,95068.53
2023-03-26T00:50:37.532Z,95065.59
2023-03-26T00:53:09.644Z,95064.22
2023-03-26T00:55:43.047Z,95072.91
2023-03-26T00:58:15.880Z,95069.78
2023-03-26T01:00:57.413Z,95070.13
2023-03-26T01:03:34.048Z,95063.66
2023-03-26T01:06:12.759Z,95074.16
2023-03-26T01:08:47.155Z,95074.50
2023-03-26T01:11:28.102Z,95065.09
2023-03-26T01:14:04.527Z,95069.91
2023-03-26T01:16:47.207Z,95073.38
2023-03-26T01:19:24.977Z,95073.25
2023-03-26T01:21:58.020Z,95079.41
2023-03-26T01:24:29.667Z,95071.09
2023-03-26T01:27:11.580Z,95062.44
2023-03-26T01:29:46.926Z,95060.75
2023-03-26T01:32:22.674Z,95057.09
2023-03-26T01:35:17.314Z,95063.56
2023-03-26T01:38:13.684Z,95051.78
2023-03-26T01:40:52.242Z,95049.91
2023-03-26T01:43:51.390Z,95050.59
2023-03-26T01:46:26.008Z,95042.72
2023-03-26T01:48:57.589Z,95048.03
2023-03-26T01:51:32.020Z,95055.59
2023-03-26T01:54:06.083Z,95047.97
2023-03-26T01:56:51.080Z,95049.13
2023-03-26T01:59:41.295Z,95031.41
2023-03-26T02:02:16.751Z,95033.78
2023-03-26T02:05:09.537Z,95033.78
2023-03-26T02:07:53.893Z,95025.50
2023-03-26T02:10:30.604Z,95021.72
2023-03-26T02:13:02.642Z,95024.72
2023-03-26T02:15:34.536Z,95022.56
2023-03-26T02:18:06.085Z,95017.75
2023-03-26T02:20:37.749Z,95019.38
2023-03-26T02:23:09.897Z,95006.94
2023-03-26T02:25:43.757Z,95005.69
2023-03-26T02:28:17.997Z,95007.56
2023-03-26T02:30:49.510Z,95002.47
2023-03-26T02:33:21.603Z,95009.41
2023-03-26T02:35:53.579Z,95006.81
2023-03-26T02:38:26.840Z,95003.38
2023-03-26T02:40:58.154Z,95003.88
2023-03-26T02:43:30.423Z,94996.00
2023-03-26T02:46:02.106Z,94996.44
2023-03-26T02:48:34.749Z,94983.19
2023-03-26T02:51:06.732Z,94986.25
2023-03-26T02:53:39.510Z,94984.34
2023-03-26T02:56:12.600Z,94982.53
2023-03-26T02:58:44.227Z,94984.81
2023-03-26T03:01:18.635Z,94967.38
2023-03-26T03:03:50.487Z,94974.13
2023-03-26T03:06:22.252Z,94968.06
2023-03-26T03:08:58.217Z,94950.94
2023-03-26T03:11:29.870Z,94943.84
2023-03-26T03:14:01.850Z,94949.56
2023-03-26T03:16:33.519Z,94937.84
2023-03-26T03:19:06.439Z,94936.31
2023-03-26T03:21:38.165Z,94934.06
2023-03-26T03:24:09.813Z,94919.34
2023-03-26T03:26:42.392Z,94917.47
2023-03-26T03:29:14.053Z,94921.66
2023-03-26T03:31:45.533Z,94917.00
2023-03-26T03:34:17.049Z,94911.69
2023-03-26T03:36:50.024Z,94918.91
2023-03-26T03:39:21.865Z,94912.97
2023-03-26T03:41:53.574Z,94910.38
2023-03-26T03:44:25.312Z,94913.03
2023-03-26T03:46:57.064Z,94907.81
2023-03-26T03:49:28.681Z,94905.56
2023-03-26T03:52:00.178Z,94910.75
2023-03-26T03:54:31.628Z,94908.50
2023-03-26T03:57:03.417Z,94910.75
2023-03-26T03:59:35.068Z,94907.31
2023-03-26T04:02:06.565Z,94896.44
2023-03-26T04:04:38.245Z,94897.66
2023-03-26T04:07:09.721Z,94888.53
2023-03-26T04:09:41.178Z,94879.09
2023-03-26T04:12:12.662Z,94877.66
2023-03-26T04:14:44.274Z,94873.09
2023-03-26T04:17:15.861Z,94879.06
2023-03-26T04:19:48.336Z,94868.44
2023-03-26T04:22:19.906Z,94869.97
2023-03-26T04:24:54.450Z,94869.69
2023-03-26T04:27:31.440Z,94867.72
2023-03-26T04:30:06.404Z,94866.56
2023-03-26T04:32:40.371Z,94864.75
2023-03-26T04:35:14.552Z,94862.09
2023-03-26T04:37:46.457Z,94863.19
2023-03-26T04:40:21.943Z,94856.84
2023-03-26T04:42:54.572Z,94843.59
2023-03-26T04:45:26.103Z,94841.75
2023-03-26T04:47:58.431Z,94837.22
2023-03-26T04:50:30.003Z,94834.56
2023-03-26T04:53:02.416Z,94841.81
2023-03-26T04:55:43.172Z,94836.91
2023-03-26T04:58:15.026Z,94829.34
2023-03-26T05:00:47.454Z,94829.00
2023-03-26T05:03:20.928Z,94824.53
2023-03-26T05:05:52.982Z,94816.53
2023-03-26T05:08:24.924Z,94818.81
2023-03-26T05:10:56.685Z,94818.09
2023-03-26T05:13:28.404Z,94809.00
2023-03-26T05:15:59.984Z,94801.78
2023-03-26T05:18:32.302Z,94799.91
2023-03-26T05:21:04.005Z,94811.66
2023-03-26T05:23:35.590Z,94801.44
2023-03-26T05:26:07.704Z,94810.63
2023-03-26T05:28:39.299Z,94806.81
2023-03-26T05:31:10.927Z,94815.63
2023-03-26T05:33:42.494Z,94807.31
2023-03-26T05:36:15.300Z,94801.69
2023-03-26T05:38:49.305Z,94797.50
2023-03-26T05:41:20.927Z,94796.84
2023-03-26T05:43:52.592Z,94791.22
2023-03-26T05:46:24.230Z,94787.81
2023-03-26T05:48:55.829Z,94778.00
2023-03-26T05:51:27.347Z,94776.47
2023-03-26T05:53:58.893Z,94766.66
2023-03-26T05:56:30.815Z,94760.28
2023-03-26T05:59:02.372Z,94749.69
2023-03-26T06:01:33.872Z,94748.94
2023-03-26T06:04:05.754Z,94745.97
2023-03-26T06:06:37.313Z,94743.69
2023-03-26T06:09:08.844Z,94739.59
2023-03-26T06:11:40.950Z,94741.13
2023-03-26T06:14:12.402Z,94738.19
2023-03-26T06:16:43.850Z,94746.56
2023-03-26T06:19:15.769Z,94745.03
2023-03-26T06:21:47.314Z,94746.16
2023-03-26T06:24:20.007Z,94735.53
2023-03-26T06:26:52.411Z,94730.34
2023-03-26T06:29:24.691Z,94729.63
2023-03-26T06:31:58.205Z,94738.28
2023-03-26T06:34:35.346Z,94739.88
2023-03-26T06:37:06.986Z,94736.53
2023-03-26T06:39:38.525Z,94728.94
2023-03-26T06:42:10.074Z,94729.72
2023-03-26T06:44:41.653Z,94733.50
2023-03-26T06:47:13.199Z,94734.38
2023-03-26T06:49:45.422Z,94727.22
2023-03-26T06:52:16.872Z,94733.69
2023-03-26T06:54:48.419Z,94729.50
2023-03-26T06:57:21.023Z,94726.09
2023-03-26T06:59:52.487Z,94724.56
2023-03-26T07:02:24.011Z,94720.78
2023-03-26T07:04:55.696Z,94723.06
2023-03-26T07:07:27.247Z,94713.19
2023-03-26T07:09:58.720Z,94709.06
2023-03-26T07:12:30.275Z,94707.94
2023-03-26T07:15:03.509Z,94704.50
2023-03-26T07:17:35.086Z,94703.72
2023-03-26T07:20:08.104Z,94695.97
2023-03-26T07:22:40.223Z,94698.28
2023-03-26T07:25:14.555Z,94691.06
2023-03-26T07:28:12.805Z,94670.59
2023-03-26T07:30:53.467Z,94669.41
2023-03-26T07:33:40.035Z,94656.16
2023-03-26T07:36:23.266Z,94656.53
2023-03-26T07:39:22.579Z,94644.44
2023-03-26T07:42:14.294Z,94631.16
2023-03-26T07:45:07.195Z,94624.00
2023-03-26T07:47:41.834Z,94612.63
2023-03-26T07:50:19.082Z,94606.22
2023-03-26T07:52:51.388Z,94599.41
2023-03-26T07:55:23.241Z,94596.78
2023-03-26T07:58:00.422Z,94585.72
2023-03-26T08:00:42.041Z,94581.16
2023-03-26T08:03:51.010Z,94574.34
2023-03-26T08:06:36.197Z,94575.16
2023-03-26T08:09:13.673Z,94561.09
2023-03-26T08:11:59.923Z,94553.91
2023-03-26T08:14:55.481Z,94557.00
2023-03-26T08:17:35.473Z,94569.53
2023-03-26T08:20:18.926Z,94561.16
2023-03-26T08:22:57.437Z,94553.59
2023-03-26T08:25:33.243Z,94546.81
2023-03-26T08:28:29.878Z,94554.06
2023-03-26T08:31:03.050Z,94541.91
2023-03-26T08:33:38.257Z,94538.09
2023-03-26T08:36:10.485Z,94544.59
2023-03-26T08:38:41.994Z,94547.66
2023-03-26T08:41:18.835Z,94544.25
2023-03-26T08:44:02.614Z,94549.16
2023-03-26T08:47:16.193Z,94543.84
2023-03-26T08:50:12.386Z,94547.25
2023-03-26T08:53:02.571Z,94547.66
2023-03-26T08:55:46.054Z,94549.50
2023-03-26T08:58:38.773Z,94545.34
2023-03-26T09:01:32.073Z,94546.41
2023-03-26T09:04:34.373Z,94543.38
2023-03-26T09:07:41.389Z,94536.53
2023-03-26T09:10:34.272Z,94533.06
2023-03-26T09:13:21.821Z,94536.84
2023-03-26T09:16:11.878Z,94529.25
2023-03-26T09:19:01.913Z,94520.16
2023-03-26T09:21:50.494Z,94511.81
2023-03-26T09:24:53.991Z,94506.50
2023-03-26T09:27:37.534Z,94499.25
2023-03-26T09:30:51.331Z,94495.09
2023-03-26T09:33:22.821Z,94510.63
2023-03-26T09:36:10.411Z,94511.00
2023-03-26T09:38:47.061Z,94519.34
2023-03-26T09:41:46.766Z,94531.88
2023-03-26T09:44:51.577Z,94523.47
2023-03-26T09:47:43.407Z,94505.28
2023-03-26T09:50:40.146Z,94498.50
2023-03-26T09:53:27.518Z,94491.66
2023-03-26T09:56:43.463Z,94497.72
2023-03-26T09:59:17.552Z,94488.66
2023-03-26T10:02:15.510Z,94468.91
2023-03-26T10:05:22.476Z,94462.09
2023-03-26T10:08:10.330Z,94462.88
2023-03-26T10:10:55.779Z,94457.91
2023-03-26T10:14:00.336Z,94454.09
2023-03-26T10:16:42.288Z,94468.19
2023-03-26T10:19:43.131Z,94466.28
2023-03-26T10:22:27.320Z,94458.69
2023-03-26T10:25:36.383Z,94468.97
2023-03-26T10:28:31.263Z,94477.66
2023-03-26T10:31:34.341Z,94459.81
2023-03-26T10:34:28.188Z,94492.75
2023-03-26T10:37:13.604Z,94498.47
2023-03-26T10:40:06.870Z,94492.75
2023-03-26T10:42:53.338Z,94496.94
2023-03-26T10:45:30.479Z,94515.09
2023-03-26T10:48:21.453Z,94505.06
2023-03-26T10:51:12.881Z,94488.41
2023-03-26T10:53:49.607Z,94488.03
2023-03-26T10:56:21.131Z,94488.41
2023-03-26T10:58:56.757Z,94467.94
2023-03-26T11:01:43.443Z,94462.63
2023-03-26T11:04:17.710Z,94466.91
2023-03-26T11:07:04.943Z,94443.75
2023-03-26T11:09:48.912Z,94453.50
2023-03-26T11:12:32.088Z,94442.28
2023-03-26T11:15:42.665Z,94442.34
2023-03-26T11:18:28.586Z,94444.25
2023-03-26T11:21:19.950Z,94462.09
2023-03-26T11:24:30.667Z,94451.88
2023-03-26T11:27:19.708Z,94441.16
2023-03-26T11:30:07.315Z,94442.69
2023-03-26T11:32:45.981Z,94449.13
2023-03-26T11:35:39.622Z,94442.97
2023-03-26T11:38:26.477Z,94437.16
2023-03-26T11:41:02.890Z,94436.75
2023-03-26T11:43:36.594Z,94443.16
2023-03-26T11:46:13.050Z,94428.03
2023-03-26T11:48:57.439Z,94432.19
2023-03-26T11:51:34.547Z,94431.84
2023-03-26T11:54:08.043Z,94433.78
2023-03-26T11:57:05.174Z,94437.50
2023-03-26T11:59:49.074Z,94427.31
2023-03-26T12:02:33.945Z,94400.75
2023-03-26T12:05:12.175Z,94396.22
2023-03-26T12:07:53.066Z,94411.50
2023-03-26T12:10:37.790Z,94408.94
2023-03-26T12:13:24.130Z,94418.44
2023-03-26T12:16:04.401Z,94402.44
2023-03-26T12:18:38.170Z,94410.78
2023-03-26T12:21:10.125Z,94391.78
2023-03-26T12:23:58.925Z,94388.34
2023-03-26T12:26:42.446Z,94389.84
2023-03-26T12:29:17.659Z,94400.81
2023-03-26T12:31:54.849Z,94387.47
2023-03-26T12:34:39.604Z,94383.44
2023-03-26T12:37:38.484Z,94379.28
2023-03-26T12:40:32.547Z,94390.69
2023-03-26T12:44:54.978Z,94399.00
2023-03-26T12:47:57.772Z,94399.00
2023-03-26T12:49:18.592Z,94390.66
2023-03-26T12:51:54.142Z,94399.00
2023-03-26T12:54:44.161Z,94388.72
2023-03-26T12:57:25.261Z,94388.75
2023-03-26T13:00:27.049Z,94381.91
2023-03-26T13:03:01.589Z,94376.25
2023-03-26T13:06:02.313Z,94376.59
2023-03-26T13:08:57.480Z,94384.59
2023-03-26T13:11:55.202Z,94376.22
2023-03-26T13:14:51.133Z,94371.28
2023-03-26T13:18:07.599Z,94366.34
2023-03-26T13:21:03.197Z,94365.63
2023-03-26T13:23:37.448Z,94370.19
2023-03-26T13:26:29.290Z,94371.31
2023-03-26T13:29:20.409Z,94363.31
2023-03-26T13:31:54.614Z,94361.81
2023-03-26T13:34:54.559Z,94363.69
2023-03-26T13:37:45.793Z,94364.84
2023-03-26T13:40:29.308Z,94361.06
2023-03-26T13:43:19.269Z,94362.97
2023-03-26T13:46:14.918Z,94351.91
2023-03-26T13:48:54.934Z,94349.66
2023-03-26T13:51:47.498Z,94333.69
2023-03-26T13:55:03.836Z,94343.94
2023-03-26T13:57:41.579Z,94331.38
2023-03-26T14:00:18.226Z,94325.25
2023-03-26T14:02:58.028Z,94304.78
2023-03-26T14:05:42.613Z,94346.63
2023-03-26T14:08:30.640Z,94350.44
2023-03-26T14:11:19.342Z,94322.69
2023-03-26T14:13:59.942Z,94314.25
2023-03-26T14:16:39.913Z,94320.25
2023-03-26T14:19:49.566Z,94317.22
2023-03-26T14:22:47.372Z,94311.22
2023-03-26T14:25:46.685Z,94311.13
2023-03-26T14:28:30.272Z,94317.22
2023-03-26T14:31:14.000Z,94313.50
2023-03-26T14:34:10.473Z,94304.38
2023-03-26T14:37:06.036Z,94295.34
2023-03-26T14:39:49.779Z,94301.06
2023-03-26T14:42:31.581Z,94291.97
2023-03-26T14:45:40.683Z,94282.09
2023-03-26T14:48:30.607Z,94267.63
2023-03-26T14:51:20.577Z,94288.16
2023-03-26T14:53:55.352Z,94280.53
2023-03-26T14:56:42.171Z,94279.00
2023-03-26T14:59:44.823Z,94280.50
2023-03-26T15:02:22.477Z,94279.75
2023-03-26T15:04:54.211Z,94280.84
2023-03-26T15:07:56.818Z,94274.00
2023-03-26T15:10:55.772Z,94272.81
2023-03-26T15:13:52.277Z,94271.34
2023-03-26T15:17:21.647Z,94261.44
2023-03-26T15:20:17.930Z,94266.00
2023-03-26T15:23:20.314Z,94254.63
2023-03-26T15:26:29.055Z,94257.28
2023-03-26T15:29:37.690Z,94254.25
2023-03-26T15:32:49.650Z,94244.38
2023-03-26T15:35:30.112Z,94238.31
2023-03-26T15:38:29.908Z,94244.03
2023-03-26T15:41:19.095Z,94252.78
2023-03-26T15:47:17.451Z,94258.91
2023-03-26T15:50:19.018Z,94274.88
2023-03-26T15:52:54.322Z,94276.75
2023-03-26T15:55:57.210Z,94278.25
2023-03-26T15:58:31.797Z,94235.38
2023-03-26T16:01:34.098Z,94229.69
2023-03-26T16:04:09.124Z,94258.50
2023-03-26T16:06:56.966Z,94268.34
2023-03-26T16:09:31.119Z,94271.00
2023-03-26T16:12:11.809Z,94257.75
2023-03-26T16:15:07.359Z,94259.69
2023-03-26T16:18:10.390Z,94266.91
2023-03-26T16:20:47.277Z,94249.84
2023-03-26T16:23:30.559Z,94242.59
2023-03-26T16:26:11.098Z,94247.53
2023-03-26T16:28:45.590Z,94236.50
2023-03-26T16:31:23.578Z,94227.41
2023-03-26T16:34:11.290Z,94231.63
2023-03-26T16:36:45.172Z,94240.28
2023-03-26T16:39:38.400Z,94224.38
2023-03-26T16:42:15.805Z,94215.25
2023-03-26T16:45:28.745Z,94214.09
2023-03-26T16:48:23.758Z,94215.97
2023-03-26T16:51:04.864Z,94225.09
2023-03-26T16:53:42.675Z,94227.38
2023-03-26T16:56:42.740Z,94225.47
2023-03-26T17:00:05.420Z,94213.69
2023-03-26T17:02:42.460Z,94230.41
2023-03-26T17:05:34.248Z,94222.81
2023-03-26T17:08:35.419Z,94221.28
2023-03-26T17:11:20.481Z,94223.56
2023-03-26T17:14:31.419Z,94225.09
2023-03-26T17:17:02.954Z,94224.72
2023-03-26T17:19:54.348Z,94234.56
2023-03-26T17:23:00.519Z,94223.56
2023-03-26T17:25:40.468Z,94225.06
2023-03-26T17:28:20.893Z,94231.88
2023-03-26T17:31:03.296Z,94244.38
2023-03-26T17:33:38.779Z,94246.66
2023-03-26T17:36:21.332Z,94251.94
2023-03-26T17:39:00.379Z,94270.09
2023-03-26T17:41:55.392Z,94284.50
2023-03-26T17:44:46.131Z,94297.34
2023-03-26T17:47:33.634Z,94295.03
2023-03-26T17:50:26.834Z,94303.75
2023-03-26T17:53:32.241Z,94336.63
2023-03-26T17:56:11.933Z,94335.38
2023-03-26T17:58:49.070Z,94310.97
2023-03-26T18:01:32.158Z,94310.53
2023-03-26T18:04:08.075Z,94299.81
2023-03-26T18:06:58.523Z,94299.28
2023-03-26T18:09:53.061Z,94297.22
2023-03-26T18:12:33.521Z,94303.94
2023-03-26T18:15:29.981Z,94303.97
2023-03-26T18:18:10.648Z,94306.53
2023-03-26T18:20:46.884Z,94310.28
2023-03-26T18:23:24.424Z,94310.63
2023-03-26T18:26:08.178Z,94318.16
2023-03-26T18:28:45.499Z,94319.28
2023-03-26T18:31:24.079Z,94323.28
2023-03-26T18:34:00.554Z,94322.44
2023-03-26T18:36:32.405Z,94322.06
2023-03-26T18:39:04.888Z,94326.41
2023-03-26T18:41:42.594Z,94313.94
2023-03-26T18:44:16.976Z,94310.88
2023-03-26T18:46:48.964Z,94304.03
2023-03-26T18:49:21.408Z,94307.03
2023-03-26T18:51:57.332Z,94311.53
2023-03-26T18:54:35.420Z,94312.91
2023-03-26T18:57:18.790Z,94303.16
2023-03-26T18:59:52.581Z,94305.88
2023-03-26T19:02:26.206Z,94303.44
2023-03-26T19:04:58.094Z,94306.91
2023-03-26T19:07:30.050Z,94309.19
2023-03-26T19:10:02.105Z,94319.34
2023-03-26T19:12:35.702Z,94315.50
2023-03-26T19:15:11.877Z,94314.00
2023-03-26T19:17:51.518Z,94316.72
2023-03-26T19:20:27.487Z,94308.13
2023-03-26T19:22:59.083Z,94313.41
2023-03-26T19:25:43.413Z,94313.81
2023-03-26T19:28:29.329Z,94306.66
2023-03-26T19:31:20.779Z,94302.13
2023-03-26T19:33:59.250Z,94320.97
2023-03-26T19:36:34.601Z,94320.91
2023-03-26T19:39:12.952Z,94318.34
2023-03-26T19:41:51.839Z,94317.47
2023-03-26T19:44:28.994Z,94312.97
2023-03-26T19:47:06.777Z,94313.44
2023-03-26T19:49:53.136Z,94311.16
2023-03-26T19:52:36.394Z,94303.59
2023-03-26T19:55:10.129Z,94302.97
2023-03-26T19:57:42.640Z,94298.78
2023-03-26T20:00:16.796Z,94297.66
2023-03-26T20:02:49.438Z,94304.34
2023-03-26T20:05:27.248Z,94308.19
2023-03-26T20:08:00.986Z,94307.84
2023-03-26T20:10:35.148Z,94300.94
2023-03-26T20:13:15.133Z,94304.25
2023-03-26T20:16:05.940Z,94297.47
2023-03-26T20:18:38.850Z,94309.19
2023-03-26T20:21:14.233Z,94303.53
2023-03-26T20:23:45.853Z,94299.06
2023-03-26T20:26:18.772Z,94308.88
2023-03-26T20:28:53.551Z,94306.28
2023-03-26T20:31:26.666Z,94304.78
2023-03-26T20:33:59.693Z,94304.78
2023-03-26T20:36:33.687Z,94296.84
2023-03-26T20:39:06.610Z,94308.53
2023-03-26T20:41:46.085Z,94311.59
2023-03-26T20:44:19.607Z,94312.28
2023-03-26T20:46:51.466Z,94311.09
2023-03-26T20:49:29.440Z,94300.53
2023-03-26T20:52:01.218Z,94301.22
2023-03-26T20:54:32.864Z,94311.09
2023-03-26T20:57:04.401Z,94303.13
2023-03-26T20:59:36.178Z,94295.50
2023-03-26T21:02:10.113Z,94291.44
2023-03-26T21:04:41.623Z,94289.91
2023-03-26T21:07:18.315Z,94290.31
2023-03-26T21:09:50.520Z,94294.44
2023-03-26T21:12:33.793Z,94295.94
2023-03-26T21:15:13.518Z,94306.16
2023-03-26T21:17:53.050Z,94296.19
2023-03-26T21:20:28.152Z,94296.63
2023-03-26T21:23:30.383Z,94305.56
2023-03-26T21:26:25.220Z,94314.63
2023-03-26T21:29:00.872Z,94316.00
2023-03-26T21:31:36.655Z,94311.88
2023-03-26T21:34:09.645Z,94315.53
2023-03-26T21:36:42.007Z,94315.63
2023-03-26T21:39:13.617Z,94305.41
2023-03-26T21:41:48.282Z,94300.06
2023-03-26T21:44:21.394Z,94306.06
2023-03-26T21:46:53.122Z,94303.94
2023-03-26T21:49:25.145Z,94302.88
2023-03-26T21:51:57.157Z,94305.53
2023-03-26T21:54:31.631Z,94296.41
2023-03-26T21:57:38.757Z,94309.94
2023-03-26T22:00:16.166Z,94309.25
2023-03-26T22:02:59.995Z,94314.88
2023-03-26T22:05:43.937Z,94309.63
2023-03-26T22:08:33.029Z,94310.81
2023-03-26T22:11:06.485Z,94305.81
2023-03-26T22:13:41.690Z,94303.91
2023-03-26T22:16:13.174Z,94306.03
2023-03-26T22:18:44.700Z,94307.97
2023-03-26T22:21:16.546Z,94302.56
2023-03-26T22:23:52.692Z,94310.97
2023-03-26T22:26:25.009Z,94310.59
2023-03-26T22:28:57.188Z,94311.22
2023-03-26T22:31:29.398Z,94310.91
2023-03-26T22:34:00.958Z,94303.69
2023-03-26T22:36:32.536Z,94311.31
2023-03-26T22:39:04.553Z,94308.56
2023-03-26T22:41:37.156Z,94307.13
2023-03-26T22:44:19.872Z,94302.94
2023-03-26T22:46:52.455Z,94301.41
2023-03-26T22:49:27.348Z,94306.97
2023-03-26T22:51:58.940Z,94304.41
2023-03-26T22:54:30.869Z,94304.06
2023-03-26T22:57:03.675Z,94305.22
2023-03-26T22:59:35.724Z,94299.06
2023-03-26T23:02:09.814Z,94295.66
2023-03-26T23:04:42.801Z,94293.03
2023-03-26T23:07:14.929Z,94287.81
2023-03-26T23:09:46.952Z,94288.09
2023-03-26T23:12:18.459Z,94293.63
2023-03-26T23:14:52.838Z,94288.00
2023-03-26T23:17:24.715Z,94289.94
2023-03-26T23:19:56.188Z,94292.72
2023-03-26T23:22:28.109Z,94286.72
2023-03-26T23:24:59.629Z,94285.09
2023-03-26T23:27:31.241Z,94286.31
2023-03-26T23:30:04.341Z,94280.69
2023-03-26T23:32:37.830Z,94283.28
2023-03-26T23:35:10.077Z,94280.22
2023-03-26T23:37:42.648Z,94274.53
2023-03-26T23:40:14.353Z,94280.53
2023-03-26T23:42:47.436Z,94275.97
2023-03-26T23:45:18.933Z,94276.81
2023-03-26T23:47:50.411Z,94271.97
2023-03-26T23:50:23.508Z,94273.13
2023-03-26T23:52:58.852Z,94269.72
2023-03-26T23:55:30.491Z,94276.53
2023-03-26T23:58:03.365Z,94274.84
